NEODyS-2

Near Earth Objects - Dynamic Site
NEODyS ∴ Observatories ∴ Site 691 ∴ Obs & residuals
Contact »
691  ▹ 
OBSERVATIONS AND RESIDUALS

691-Steward Observatory, Kitt Peak-Spacewatch

Detections | Residuals | Detections & Residuals

[1-200] [201-400] [401-600] [601-800] [801-1000] [1001-1200] [1201-1400] [1401-1600] [1601-1800] [1801-2000] [2001-2200] [2201-2400] [2401-2600] [2601-2800] [2801-3000] [3001-3200] [3201-3400] [3401-3600] [3601-3800] [3801-4000] [4001-4200] [4201-4400] [4401-4600] [4601-4800] [4801-5000] [5001-5200] [5201-5400] [5401-5600] [5601-5800] [5801-6000] [6001-6200] [6201-6400] [6401-6600] [6601-6800] [6801-7000] [7001-7200] [7201-7400] [7401-7600] [7601-7800] [7801-8000] [8001-8200] [8201-8400] [8401-8600] [8601-8800] [8801-9000] [9001-9200] [9201-9400] [9401-9600] [9601-9800] [9801-10000] [10001-10200] [10201-10400] [10401-10600] [10601-10800] [10801-11000] [11001-11200] [11201-11400] [11401-11600] [11601-11800] [11801-12000] [12001-12200] [12201-12400] [12401-12600] [12601-12800] [12801-13000] [13001-13200] [13201-13400] [13401-13600] [13601-13800] [13801-14000] [14001-14200] [14201-14400] [14401-14600] [14601-14800] [14801-15000] [15001-15200] [15201-15400] [15401-15600] [15601-15800] [15801-16000] [16001-16200] [16201-16400] [16401-16600] [16601-16800] [16801-17000] [17001-17200] [17201-17400] [17401-17600] [17601-17800] [17801-18000] [18001-18200] [18201-18400] [18401-18600] [18601-18800] [18801-19000] [19001-19200] [19201-19400] [19401-19600] [19601-19800] [19801-20000] [20001-20200] [20201-20400] [20401-20600] [20601-20800] [20801-21000] [21001-21200] [21201-21400] [21401-21600] [21601-21800] [21801-22000] [22001-22200] [22201-22400] [22401-22600] [22601-22800] [22801-23000] [23001-23200] [23201-23400] [23401-23600] [23601-23800] [23801-24000] [24001-24200] [24201-24400] [24401-24600] [24601-24800] [24801-25000] [25001-25200] [25201-25400] [25401-25600] [25601-25800] [25801-26000] [26001-26200] [26201-26400] [26401-26600] [26601-26800] [26801-27000] [27001-27200] [27201-27400] [27401-27600] [27601-27800] [27801-28000] [28001-28200] [28201-28400] [28401-28600] [28601-28800] [28801-29000] [29001-29200] [29201-29400] [29401-29600] [29601-29800] [29801-30000] [30001-30200] [30201-30400] [30401-30600] [30601-30800] [30801-31000] [31001-31200] [31201-31400] [31401-31600] [31601-31800] [31801-32000] [32001-32200] [32201-32400] [32401-32600] [32601-32800] [32801-33000] [33001-33200] [33201-33400] [33401-33600] [33601-33800] [33801-34000] [34001-34200] [34201-34400] [34401-34600] [34601-34800] [34801-35000] [35001-35200] [35201-35400] [35401-35600] [35601-35800] [35801-36000] [36001-36200] [36201-36400] [36401-36600] [36601-36800] [36801-37000] [37001-37200] [37201-37400] [37401-37600] [37601-37800] [37801-38000] [38001-38200] [38201-38400] [38401-38600] [38601-38800] [38801-39000] [39001-39200] [39201-39400] [39401-39600] [39601-39800] [39801-40000] [40001-40200] [40201-40400] [40401-40600] [40601-40800] [40801-41000] [41001-41200] [41201-41400] [41401-41600] [41601-41800] [41801-42000] [42001-42200] [42201-42400] [42401-42600] [42601-42800] [42801-43000] [43001-43200] [43201-43400] [43401-43600] [43601-43800] [43801-44000] [44001-44200] [44201-44400] [44401-44600] [44601-44800] [44801-45000] [45001-45200] [45201-45400] [45401-45600] [45601-45800] [45801-46000] [46001-46200] [46201-46400] [46401-46600] [46601-46800] [46801-47000] [47001-47200] [47201-47400] [47401-47600] [47601-47800] [47801-48000] [48001-48200] [48201-48400] [48401-48600] [48601-48800] [48801-49000] [49001-49200] [49201-49400] [49401-49600] [49601-49800] [49801-50000] [50001-50200] [50201-50388]

Designation T Tech N Date Right Ascension Declination Apparent Magnitude Star Catalog Site code χ Used A Used M
yr-mo-day precision hr:min:sec precision rms F bias residual deg min sec precision rms F bias residual mag/col rms residual
2018KR2 O C 2018-06-11.45987 1.000E-05 22:34:38.600 1.500E-01 0.500 F 0.004 0.211 -28° 20' 22.40" 1.000E-01 0.500 F 0.496 -0.096 18.8 R 0.70 0.05 o 691 0.47 Yes Yes
2018KR2 O C 2018-06-11.46227 1.000E-05 22:34:39.460 1.500E-01 0.500 F 0.004 0.039 -28° 20' 21.10" 1.000E-01 0.500 F 0.496 -0.035 19.0 R 0.70 0.25 o 691 0.10 Yes Yes
2018KR2 O C 2018-06-11.46468 1.000E-05 22:34:40.330 1.500E-01 0.500 F 0.004 -0.047 -28° 20' 19.90" 1.000E-01 0.500 F 0.496 -0.081 18.7 R 0.70 -0.05 o 691 0.19 Yes Yes
2018LR3 O C K 2018-06-12.16139 1.000E-05 13:53:02.980 1.500E-01 0.500 F 0.078 0.198 -20° 26' 58.00" 1.000E-01 0.500 F -0.174 0.053 o 691 0.41 Yes No
2018LR3 O C K 2018-06-12.17226 1.000E-05 13:52:58.490 1.500E-01 0.500 F 0.078 -0.069 -20° 26' 49.40" 1.000E-01 0.500 F -0.174 0.209 o 691 0.44 Yes No
2018LR3 O C K 2018-06-12.18314 1.000E-05 13:52:54.020 1.500E-01 0.500 F 0.078 0.022 -20° 26' 40.90" 1.000E-01 0.500 F -0.174 -0.060 o 691 0.13 Yes No
2018LB1 O C K 2018-06-12.20298 1.000E-05 14:34:38.430 1.500E-01 0.500 F 0.117 -0.910 -17° 43' 16.70" 1.000E-01 0.500 F 0.071 -0.153 o 691 1.85 Yes No
2018LH1 O C K 2018-06-12.20873 1.000E-05 14:32:08.370 1.500E-01 0.500 F 0.257 -0.293 -09° 58' 49.50" 1.000E-01 0.500 F 0.075 -0.433 o 691 1.06 Yes No
2018LB1 O C K 2018-06-12.21678 1.000E-05 14:34:37.350 1.500E-01 0.500 F 0.117 0.135 -17° 43' 10.70" 1.000E-01 0.500 F 0.071 0.089 o 691 0.32 Yes No
2018LH1 O C K 2018-06-12.22252 1.000E-05 14:32:04.990 1.500E-01 0.500 F 0.257 0.054 -09° 58' 57.70" 1.000E-01 0.500 F 0.075 0.137 o 691 0.30 Yes No
2018LB1 O C K 2018-06-12.23056 1.000E-05 14:34:36.190 1.500E-01 0.500 F 0.117 -0.003 -17° 43' 04.60" 1.000E-01 0.500 F 0.071 0.418 o 691 0.84 Yes No
2018LH1 O C K 2018-06-12.23630 1.000E-05 14:32:01.600 1.500E-01 0.500 F 0.257 0.203 -09° 59' 06.90" 1.000E-01 0.500 F 0.075 -0.310 o 691 0.75 Yes No
2018EQ4 O C K 2018-06-12.24744 1.000E-05 15:22:03.410 1.500E-01 0.500 F 0.198 0.240 +04° 41' 06.50" 1.000E-01 0.500 F 0.143 0.382 21.4 R 0.70 0.18 o 691 0.91 Yes Yes
2018EQ4 O C K 2018-06-12.25418 1.000E-05 15:22:03.150 1.500E-01 0.500 F 0.198 -0.052 +04° 41' 00.40" 1.000E-01 0.500 F 0.143 0.137 21.5 R 0.70 0.28 o 691 0.29 Yes Yes
2018EQ4 O C K 2018-06-12.26093 1.000E-05 15:22:02.940 1.500E-01 0.500 F 0.198 0.403 +04° 40' 54.10" 1.000E-01 0.500 F 0.143 -0.299 21.8 R 0.70 0.58 o 691 1.01 Yes Yes
2018LE1 O C K 2018-06-12.27111 1.000E-05 16:34:08.000 1.500E-01 0.500 F -0.069 -0.134 -12° 04' 46.40" 1.000E-01 0.500 F 0.132 -0.128 o 691 0.37 Yes No
2018LE1 O C K 2018-06-12.28511 1.000E-05 16:34:06.060 1.500E-01 0.500 F -0.069 -0.134 -12° 04' 48.90" 1.000E-01 0.500 F 0.132 -0.082 o 691 0.32 Yes No
2018LE1 O C K 2018-06-12.29911 1.000E-05 16:34:04.200 1.500E-01 0.500 F -0.069 0.922 -12° 04' 50.80" 1.000E-01 0.500 F 0.132 0.324 o 691 1.96 Yes No
2012MR4 O C K 2018-06-12.40202 1.000E-05 20:15:53.640 1.500E-01 0.500 F -0.122 0.691 -17° 53' 07.20" 1.000E-01 0.500 F 0.137 1.036 o 691 2.53 Yes No
2012MR4 O C K 2018-06-12.41900 1.000E-05 20:15:52.220 1.500E-01 0.500 F -0.122 -0.049 -17° 53' 01.60" 1.000E-01 0.500 F 0.137 -0.004 o 691 0.10 Yes No
2012MR4 O C K 2018-06-12.43598 1.000E-05 20:15:50.870 1.500E-01 0.500 F -0.122 0.225 -17° 52' 55.20" 1.000E-01 0.500 F 0.137 -0.260 o 691 0.70 Yes No
2018LO6 O C K 2018-06-12.45289 1.000E-05 22:28:06.160 1.500E-01 0.500 F -0.216 0.610 -26° 02' 41.90" 1.000E-01 0.500 F 0.600 -0.373 o 691 1.44 Yes No
2018LO6 O C K 2018-06-12.45756 1.000E-05 22:28:07.060 1.500E-01 0.500 F -0.216 -1.084 -26° 02' 33.50" 1.000E-01 0.500 F 0.600 -0.247 o 691 2.24 Yes No
2018LR3 O C K 2018-06-13.17787 1.000E-05 13:47:13.680 1.500E-01 0.500 F 0.297 -0.210 -20° 13' 00.70" 1.000E-01 0.500 F -0.181 -0.412 o 691 0.93 Yes No
2018LR3 O C K 2018-06-13.19030 1.000E-05 13:47:08.160 1.500E-01 0.500 F 0.297 -0.623 -20° 12' 48.20" 1.000E-01 0.500 F -0.181 0.321 o 691 1.41 Yes No
2018LU2 O C K 2018-06-13.36750 1.000E-05 17:27:18.860 1.500E-01 0.500 F 0.157 0.235 +05° 06' 05.10" 1.000E-01 0.500 F 0.196 0.167 o 691 0.58 Yes No
2018LU2 O C K 2018-06-13.37279 1.000E-05 17:27:18.570 1.500E-01 0.500 F 0.157 0.049 +05° 05' 48.10" 1.000E-01 0.500 F 0.196 0.254 o 691 0.52 Yes No
2005EZ29 O C K 2018-06-13.38289 1.000E-05 20:15:54.740 1.500E-01 0.500 F -0.086 -0.026 -06° 44' 29.10" 1.000E-01 0.500 F 0.212 -0.122 o 691 0.25 Yes No
2005EZ29 O C K 2018-06-13.39464 1.000E-05 20:15:54.070 1.500E-01 0.500 F -0.086 0.340 -06° 44' 31.20" 1.000E-01 0.500 F 0.212 0.113 o 691 0.73 Yes No
2005EZ29 O C K 2018-06-13.40641 1.000E-05 20:15:53.360 1.500E-01 0.500 F -0.086 0.143 -06° 44' 33.20" 1.000E-01 0.500 F 0.212 0.449 o 691 0.95 Yes No
2012LF11 O C 2018-06-13.41996 1.000E-05 21:12:31.790 1.500E-01 0.500 F 0.053 -0.146 +19° 05' 42.30" 1.000E-01 0.500 F 0.180 0.068 o 691 0.33 Yes No
2012LF11 O C 2018-06-13.42526 1.000E-05 21:12:30.770 1.500E-01 0.500 F 0.053 -0.050 +19° 05' 48.90" 1.000E-01 0.500 F 0.180 -0.192 o 691 0.40 Yes No
2012LF11 O C 2018-06-13.43057 1.000E-05 21:12:29.710 1.500E-01 0.500 F 0.053 -0.484 +19° 05' 55.80" 1.000E-01 0.500 F 0.180 -0.156 o 691 1.03 Yes No
2018LO6 O C K 2018-06-13.43973 1.000E-05 22:31:49.750 1.500E-01 0.500 F -0.154 0.262 -25° 32' 45.00" 1.000E-01 0.500 F 0.420 0.008 o 691 0.53 Yes No
2018LO6 O C K 2018-06-13.44699 1.000E-05 22:31:51.320 1.500E-01 0.500 F -0.154 -0.240 -25° 32' 31.90" 1.000E-01 0.500 F 0.420 -0.214 o 691 0.65 Yes No
2018LO6 O C K 2018-06-13.45425 1.000E-05 22:31:52.920 1.500E-01 0.500 F -0.154 -0.322 -25° 32' 18.70" 1.000E-01 0.500 F 0.420 -0.350 o 691 0.96 Yes No
Yuliya O C 2018-06-14.21663 1.000E-05 16:55:19.810 1.500E-01 0.500 F -0.064 -0.172 +23° 17' 01.70" 1.000E-01 0.500 F 0.161 -0.075 o 691 0.38 Yes No
2018LQ2 O C K 2018-06-14.21663 1.000E-05 16:56:45.220 1.500E-01 0.500 F -0.064 0.086 +23° 11' 32.80" 1.000E-01 0.500 F 0.161 -0.011 o 691 0.17 Yes No
Yuliya O C 2018-06-14.22286 1.000E-05 16:55:19.660 1.500E-01 0.500 F -0.064 0.116 +23° 16' 54.30" 1.000E-01 0.500 F 0.161 0.076 o 691 0.28 Yes No
2018LQ2 O C K 2018-06-14.22286 1.000E-05 16:56:44.890 1.500E-01 0.500 F -0.064 0.076 +23° 11' 48.40" 1.000E-01 0.500 F 0.161 -0.136 o 691 0.31 Yes No
Yuliya O C 2018-06-14.22907 1.000E-05 16:55:19.480 1.500E-01 0.500 F -0.064 -0.004 +23° 16' 46.60" 1.000E-01 0.500 F 0.161 -0.083 o 691 0.17 Yes No
2018LQ2 O C K 2018-06-14.22907 1.000E-05 16:56:44.540 1.500E-01 0.500 F -0.064 -0.134 +23° 12' 04.20" 1.000E-01 0.500 F 0.161 0.072 o 691 0.31 Yes No
2018LQ6 O C K 2018-06-15.18661 1.000E-05 14:44:28.800 1.500E-01 0.500 F 0.323 0.167 -27° 17' 28.30" 1.000E-01 0.500 F 0.282 0.335 o 691 0.76 Yes No
2018LQ6 O C K 2018-06-15.19144 1.000E-05 14:44:28.990 1.500E-01 0.500 F 0.323 -0.721 -27° 17' 05.00" 1.000E-01 0.500 F 0.282 -0.292 o 691 1.57 Yes No
2018LS5 O C K 2018-06-15.25055 1.000E-05 16:06:56.940 1.500E-01 0.500 F 0.020 -0.476 -21° 08' 35.30" 1.000E-01 0.500 F 0.129 0.004 o 691 0.96 Yes No
2018LS5 O C K 2018-06-15.25987 1.000E-05 16:07:03.980 1.500E-01 0.500 F 0.020 0.069 -21° 08' 59.80" 1.000E-01 0.500 F 0.129 0.810 o 691 1.64 Yes No
2018LT6 O C H 2018-06-17.29698 1.000E-05 17:40:35.800 1.500E-01 0.500 F 0.035 -0.568 -12° 46' 55.70" 1.000E-01 0.500 F 0.271 -0.686 17.5 R 0.70 -0.39 o 691 1.82 Yes Yes
2018LT6 O C H 2018-06-17.30808 1.000E-05 17:40:37.510 1.500E-01 0.500 F 0.035 0.369 -12° 47' 24.60" 1.000E-01 0.500 F 0.271 -0.248 18.1 R 0.70 0.21 o 691 0.91 Yes Yes
2016CX264 O C H 2018-06-18.16065 1.000E-05 12:49:31.190 1.500E-01 0.500 F 0.336 -0.158 -23° 06' 25.20" 1.000E-01 0.500 F 0.257 0.221 19.4 R 0.70 -0.55 o 691 0.55 Yes Yes
2016CX264 O C H 2018-06-18.17178 1.000E-05 12:49:30.840 1.500E-01 0.500 F 0.336 -0.240 -23° 06' 35.50" 1.000E-01 0.500 F 0.257 0.405 19.5 R 0.70 -0.45 o 691 0.95 Yes Yes
2016CX264 O C H 2018-06-18.18285 1.000E-05 12:49:30.340 1.500E-01 0.500 F 0.336 -2.456 -23° 06' 47.00" 1.000E-01 0.500 F 0.257 -0.694 o 691 5.08 No No
2000WK107 O C 2018-06-18.23666 1.000E-05 15:23:15.070 1.500E-01 0.500 F 0.029 -0.080 -07° 37' 18.60" 1.000E-01 0.500 F 0.185 -0.402 20.6 V 0.70 -0.53 o 691 0.82 Yes Yes
2000WK107 O C 2018-06-18.24931 1.000E-05 15:23:14.830 1.500E-01 0.500 F 0.029 -0.220 -07° 37' 11.60" 1.000E-01 0.500 F 0.185 -0.243 21.0 V 0.70 -0.13 o 691 0.66 Yes Yes
2000WK107 O C 2018-06-18.26197 1.000E-05 15:23:14.600 1.500E-01 0.500 F 0.029 -0.223 -07° 37' 04.70" 1.000E-01 0.500 F 0.185 -0.191 20.8 V 0.70 -0.33 o 691 0.59 Yes Yes
2018LM5 O C 2018-06-18.26651 1.000E-05 16:28:17.330 1.500E-01 0.500 F 0.224 -0.509 -09° 40' 43.40" 1.000E-01 0.500 F 0.183 0.218 21.3 V 0.70 -0.18 o 691 1.11 Yes Yes
2018LM5 O C 2018-06-18.27967 1.000E-05 16:28:16.280 1.500E-01 0.500 F 0.224 -0.565 -09° 40' 38.00" 1.000E-01 0.500 F 0.183 -0.210 21.3 V 0.70 -0.18 o 691 1.21 Yes Yes
2018LM5 O C 2018-06-18.29260 1.000E-05 16:28:15.270 1.500E-01 0.500 F 0.224 -0.310 -09° 40' 32.10" 1.000E-01 0.500 F 0.183 -0.043 20.9 V 0.70 -0.58 o 691 0.63 Yes Yes
2002LJ3 O C 2018-06-18.33872 1.000E-05 20:30:35.390 1.500E-01 0.500 F -0.003 -0.239 -09° 03' 35.10" 1.000E-01 0.500 F 0.397 -0.175 18.6 V 0.70 0.03 o 691 0.59 Yes Yes
2002LJ3 O C 2018-06-18.34780 1.000E-05 20:30:35.880 1.500E-01 0.500 F -0.003 -0.279 -09° 03' 36.00" 1.000E-01 0.500 F 0.397 -0.132 18.7 V 0.70 0.13 o 691 0.62 Yes Yes
2002LJ3 O C 2018-06-18.35681 1.000E-05 20:30:36.370 1.500E-01 0.500 F -0.003 -0.235 -09° 03' 36.80" 1.000E-01 0.500 F 0.397 -0.002 18.8 V 0.70 0.23 o 691 0.47 Yes Yes
2018LC3 O C 2018-06-18.40139 1.000E-05 00:06:41.370 1.500E-01 0.500 F -0.100 -0.584 +12° 52' 49.10" 1.000E-01 0.500 F 0.338 -0.231 19.7 V 0.70 0.30 o 691 1.27 Yes Yes
2018LC3 O C 2018-06-18.41333 1.000E-05 00:06:41.040 1.500E-01 0.500 F -0.100 -0.111 +12° 51' 34.50" 1.000E-01 0.500 F 0.338 -0.134 19.7 V 0.70 0.30 o 691 0.35 Yes Yes
2018LC3 O C 2018-06-18.42526 1.000E-05 00:06:40.670 1.500E-01 0.500 F -0.100 -0.127 +12° 50' 19.70" 1.000E-01 0.500 F 0.338 -0.258 19.5 V 0.70 0.10 o 691 0.58 Yes Yes
2018LG O C K 2018-06-19.16727 1.000E-05 14:29:11.170 1.500E-01 0.500 F 0.103 0.103 -01° 48' 20.40" 1.000E-01 0.500 F 0.173 0.465 o 691 0.97 Yes No
2018KG1 O C H 2018-06-19.17188 1.000E-05 13:57:24.250 1.500E-01 0.500 F 0.289 -0.214 -10° 57' 04.30" 1.000E-01 0.500 F 0.155 0.045 20.8 R 0.70 0.65 o 691 0.44 Yes Yes
2018LU3 O C H 2018-06-19.17438 1.000E-05 15:10:49.490 1.500E-01 0.500 F 0.219 0.215 -22° 13' 14.80" 1.000E-01 0.500 F 0.083 -0.074 18.6 R 0.70 -0.10 o 691 0.46 Yes Yes
2018LG O C K 2018-06-19.17582 1.000E-05 14:29:12.900 1.500E-01 0.500 F 0.103 0.026 -01° 47' 41.80" 1.000E-01 0.500 F 0.173 -0.048 o 691 0.11 Yes No
2018KG1 O C H 2018-06-19.18041 1.000E-05 13:57:23.970 1.500E-01 0.500 F 0.289 -0.081 -10° 56' 59.40" 1.000E-01 0.500 F 0.155 -0.044 20.4 R 0.70 0.25 o 691 0.18 Yes Yes
2018LU3 O C H 2018-06-19.18293 1.000E-05 15:10:53.810 1.500E-01 0.500 F 0.219 0.029 -22° 13' 30.80" 1.000E-01 0.500 F 0.083 -0.100 18.8 R 0.70 0.10 o 691 0.21 Yes Yes
2018LG O C K 2018-06-19.18437 1.000E-05 14:29:14.650 1.500E-01 0.500 F 0.103 0.239 -01° 47' 02.60" 1.000E-01 0.500 F 0.173 0.036 20.1 R 0.70 0.07 o 691 0.49 Yes Yes
2018KG1 O C H 2018-06-19.18896 1.000E-05 13:57:23.680 1.500E-01 0.500 F 0.289 -0.094 -10° 56' 54.40" 1.000E-01 0.500 F 0.155 -0.050 o 691 0.21 Yes No
2018LU3 O C H 2018-06-19.19161 1.000E-05 15:10:58.220 1.500E-01 0.500 F 0.219 0.192 -22° 13' 46.90" 1.000E-01 0.500 F 0.083 -0.107 o 691 0.44 Yes No
2018LQ6 O C K 2018-06-19.19484 1.000E-05 14:48:33.830 1.500E-01 0.500 F 0.097 0.261 -22° 05' 30.70" 1.000E-01 0.500 F 0.120 -0.155 o 691 0.63 Yes No
2018LS2 O C K 2018-06-19.20409 1.000E-05 15:18:07.790 1.500E-01 0.500 F 0.245 -0.158 -23° 15' 10.90" 1.000E-01 0.500 F 0.219 0.368 20.1 R 0.70 -0.05 o 691 0.81 Yes Yes
2018LP2 O C K 2018-06-19.20722 1.000E-05 16:10:51.040 1.500E-01 0.500 F -0.058 0.015 -17° 31' 13.30" 1.000E-01 0.500 F 0.123 -0.040 o 691 0.09 Yes No
2018LQ6 O C K 2018-06-19.21582 1.000E-05 14:48:34.960 1.500E-01 0.500 F 0.097 -0.293 -22° 03' 59.10" 1.000E-01 0.500 F 0.120 -0.498 o 691 1.21 Yes No
2018LS2 O C K 2018-06-19.22506 1.000E-05 15:18:03.210 1.500E-01 0.500 F 0.245 -0.223 -23° 15' 50.00" 1.000E-01 0.500 F 0.219 -0.040 19.7 R 0.70 -0.45 o 691 0.46 Yes Yes
2018LP2 O C K 2018-06-19.22807 1.000E-05 16:10:48.020 1.500E-01 0.500 F -0.058 -0.031 -17° 31' 36.20" 1.000E-01 0.500 F 0.123 -0.252 o 691 0.51 Yes No
2018LQ6 O C K 2018-06-19.23657 1.000E-05 14:48:36.150 1.500E-01 0.500 F 0.039 0.173 -22° 02' 27.80" 1.000E-01 0.500 F -0.002 -0.036 o 691 0.37 Yes No
2018LS2 O C K 2018-06-19.24583 1.000E-05 15:17:58.680 1.500E-01 0.500 F 0.245 -0.228 -23° 16' 28.10" 1.000E-01 0.500 F 0.219 -0.041 o 691 0.47 Yes No
2018LP2 O C K 2018-06-19.24884 1.000E-05 16:10:45.040 1.500E-01 0.500 F -0.058 0.339 -17° 31' 58.40" 1.000E-01 0.500 F 0.123 0.086 o 691 0.71 Yes No
2018KM2 O C K 2018-06-19.25784 1.000E-05 15:45:25.390 1.500E-01 0.500 F 0.113 0.167 -04° 24' 40.40" 1.000E-01 0.500 F 0.134 -0.004 o 691 0.33 Yes No
2018LL5 O C K 2018-06-19.26246 1.000E-05 16:06:06.620 1.500E-01 0.500 F 0.096 0.171 -07° 15' 22.70" 1.000E-01 0.500 F 0.213 -0.034 o 691 0.35 Yes No
2018LM5 O C K 2018-06-19.26990 1.000E-05 16:27:01.470 1.500E-01 0.500 F 0.224 -0.237 -09° 33' 24.70" 1.000E-01 0.500 F 0.183 0.692 o 691 1.47 Yes No
2018KM2 O C K 2018-06-19.27552 1.000E-05 15:45:23.280 1.500E-01 0.500 F 0.113 0.144 -04° 24' 54.20" 1.000E-01 0.500 F 0.134 -0.056 o 691 0.31 Yes No
2018LL5 O C K 2018-06-19.28013 1.000E-05 16:06:03.420 1.500E-01 0.500 F 0.096 -0.295 -07° 14' 53.70" 1.000E-01 0.500 F 0.213 0.413 o 691 1.02 Yes No
2018LM5 O C K 2018-06-19.28756 1.000E-05 16:27:00.100 1.500E-01 0.500 F 0.224 0.032 -09° 33' 17.90" 1.000E-01 0.500 F 0.183 -0.152 o 691 0.31 Yes No
2018KM2 O C K 2018-06-19.29314 1.000E-05 15:45:21.170 1.500E-01 0.500 F 0.113 -0.043 -04° 25' 07.60" 1.000E-01 0.500 F 0.134 0.242 o 691 0.49 Yes No
2018LL5 O C K 2018-06-19.29777 1.000E-05 16:06:00.270 1.500E-01 0.500 F 0.096 -0.168 -07° 14' 25.70" 1.000E-01 0.500 F 0.213 -0.154 o 691 0.46 Yes No
2018LM5 O C K 2018-06-19.30520 1.000E-05 16:26:58.730 1.500E-01 0.500 F 0.224 0.252 -09° 33' 10.10" 1.000E-01 0.500 F 0.183 0.000 o 691 0.51 Yes No
2017QP17 O C K 2018-06-19.31218 1.000E-05 16:38:56.490 1.500E-01 0.500 F -0.030 0.154 -12° 51' 27.50" 1.000E-01 0.500 F 0.206 -0.390 o 691 0.85 Yes No
2018LC1 O C K 2018-06-19.31712 1.000E-05 16:36:40.240 1.500E-01 0.500 F 0.227 -0.061 +07° 58' 48.20" 1.000E-01 0.500 F 0.121 0.424 o 691 0.87 Yes No
2018JQ1 O C K 2018-06-19.32133 1.000E-05 16:28:42.310 1.500E-01 0.500 F 0.089 -0.109 +05° 11' 43.40" 1.000E-01 0.500 F 0.219 0.155 o 691 0.38 Yes No
2017QP17 O C K 2018-06-19.32590 1.000E-05 16:38:54.470 1.500E-01 0.500 F -0.030 -0.017 -12° 51' 08.60" 1.000E-01 0.500 F 0.206 0.088 o 691 0.18 Yes No
2018LC1 O C K 2018-06-19.33062 1.000E-05 16:36:43.660 1.500E-01 0.500 F 0.227 0.267 +07° 57' 51.10" 1.000E-01 0.500 F 0.121 -1.003 o 691 2.11 Yes No
2018JQ1 O C K 2018-06-19.33483 1.000E-05 16:28:43.340 1.500E-01 0.500 F 0.089 -0.171 +05° 11' 45.20" 1.000E-01 0.500 F 0.219 0.102 o 691 0.40 Yes No
2017QP17 O C K 2018-06-19.33939 1.000E-05 16:38:52.490 1.500E-01 0.500 F -0.030 -0.137 -12° 50' 50.60" 1.000E-01 0.500 F 0.206 -0.038 o 691 0.29 Yes No
2018LC1 O C K 2018-06-19.34415 1.000E-05 16:36:47.060 1.500E-01 0.500 F 0.227 -0.106 +07° 56' 56.50" 1.000E-01 0.500 F 0.121 0.224 o 691 0.51 Yes No
2018JQ1 O C K 2018-06-19.34835 1.000E-05 16:28:44.400 1.500E-01 0.500 F 0.089 0.116 +05° 11' 47.30" 1.000E-01 0.500 F 0.219 0.369 o 691 0.78 Yes No
2007LC15 O C K 2018-06-19.35343 1.000E-05 17:12:51.840 1.500E-01 0.500 F 0.041 0.870 +00° 14' 32.30" 1.000E-01 0.500 F 0.229 -0.531 o 691 2.05 Yes No
2007NL1 O C K 2018-06-19.36084 1.000E-05 18:37:45.960 1.500E-01 0.500 F -0.033 0.234 +12° 07' 00.50" 1.000E-01 0.500 F 0.197 -0.327 o 691 0.86 Yes No
2007LC15 O C K 2018-06-19.36864 1.000E-05 17:12:49.860 1.500E-01 0.500 F 0.041 0.107 +00° 14' 26.10" 1.000E-01 0.500 F 0.229 0.924 o 691 1.87 Yes No
2007LC15 O C K 2018-06-19.38369 1.000E-05 17:12:47.940 1.500E-01 0.500 F 0.041 -0.092 +00° 14' 17.50" 1.000E-01 0.500 F 0.229 -0.097 o 691 0.27 Yes No
2007NL1 O C K 2018-06-19.39089 1.000E-05 18:37:42.730 1.500E-01 0.500 F -0.033 0.236 +12° 06' 34.80" 1.000E-01 0.500 F 0.197 0.089 o 691 0.54 Yes No
2018LC3 O C H 2018-06-19.41245 1.000E-05 00:06:14.750 1.500E-01 0.500 F -0.131 -0.054 +11° 05' 26.50" 1.000E-01 0.500 F 0.316 -0.100 18.9 R 0.70 -0.05 o 691 0.23 Yes Yes
2018JD5 O C K 2018-06-19.41361 1.000E-05 00:40:35.150 1.500E-01 0.500 F -0.339 0.373 +08° 01' 47.60" 1.000E-01 0.500 F 0.211 -0.726 o 691 1.64 Yes No
2018KB1 O C K 2018-06-19.41858 1.000E-05 00:18:55.780 1.500E-01 0.500 F -0.192 -0.239 +00° 15' 02.70" 1.000E-01 0.500 F 0.330 0.072 o 691 0.51 Yes No
2018LC3 O C H 2018-06-19.42961 1.000E-05 00:06:14.190 1.500E-01 0.500 F -0.131 -0.245 +11° 03' 36.20" 1.000E-01 0.500 F 0.316 0.217 19.4 R 0.70 0.46 o 691 0.66 Yes Yes
2018JD5 O C K 2018-06-19.43077 1.000E-05 00:40:38.930 1.500E-01 0.500 F -0.339 -0.078 +08° 02' 18.80" 1.000E-01 0.500 F 0.211 0.255 o 691 0.54 Yes No
2018KB1 O C K 2018-06-19.43575 1.000E-05 00:19:00.020 1.500E-01 0.500 F -0.192 -0.358 +00° 14' 51.80" 1.000E-01 0.500 F 0.330 0.184 o 691 0.82 Yes No
2018LC3 O C H 2018-06-19.44678 1.000E-05 00:06:13.650 1.500E-01 0.500 F -0.131 0.057 +11° 01' 45.30" 1.000E-01 0.500 F 0.316 0.083 19.8 R 0.70 0.86 o 691 0.20 Yes Yes
2018JD5 O C K 2018-06-19.44794 1.000E-05 00:40:42.750 1.500E-01 0.500 F -0.339 0.162 +08° 02' 49.00" 1.000E-01 0.500 F 0.211 0.236 o 691 0.58 Yes No
2018KG1 O C 2018-06-20.16469 1.000E-05 13:56:56.930 1.500E-01 0.500 F 0.289 -0.390 -10° 47' 34.00" 1.000E-01 0.500 F 0.155 0.020 20.8 V 0.70 0.24 o 691 0.78 Yes Yes
2018LU3 O C 2018-06-20.17070 1.000E-05 15:20:13.630 1.500E-01 0.500 F -0.003 -0.542 -22° 43' 06.50" 1.000E-01 0.500 F 0.063 0.550 19.5 V 0.70 0.45 o 691 1.56 Yes Yes
2018KG1 O C 2018-06-20.17299 1.000E-05 13:56:56.680 1.500E-01 0.500 F 0.289 -0.316 -10° 47' 29.40" 1.000E-01 0.500 F 0.155 -0.095 20.8 V 0.70 0.24 o 691 0.66 Yes Yes
2018LS2 O C K 2018-06-20.17540 1.000E-05 15:14:49.940 1.500E-01 0.500 F 0.246 0.167 -23° 45' 54.90" 1.000E-01 0.500 F 0.171 -0.175 o 691 0.49 Yes No
2018LU3 O C 2018-06-20.17903 1.000E-05 15:20:18.090 1.500E-01 0.500 F -0.003 0.351 -22° 43' 22.10" 1.000E-01 0.500 F 0.063 0.019 19.3 V 0.70 0.25 o 691 0.71 Yes Yes
2018KG1 O C 2018-06-20.18137 1.000E-05 13:56:56.410 1.500E-01 0.500 F 0.289 -0.508 -10° 47' 24.90" 1.000E-01 0.500 F 0.155 -0.361 20.6 V 0.70 0.04 o 691 1.25 Yes Yes
2018LS2 O C K 2018-06-20.18384 1.000E-05 15:14:48.030 1.500E-01 0.500 F 0.246 0.215 -23° 46' 11.00" 1.000E-01 0.500 F 0.171 0.272 o 691 0.70 Yes No
2018LU3 O C 2018-06-20.18746 1.000E-05 15:20:22.470 1.500E-01 0.500 F -0.003 -0.563 -22° 43' 36.80" 1.000E-01 0.500 F 0.063 0.446 19.4 V 0.70 0.35 o 691 1.46 Yes Yes
2018LO5 O C K 2018-06-20.18867 1.000E-05 15:40:42.640 1.500E-01 0.500 F 0.119 0.281 -12° 26' 44.00" 1.000E-01 0.500 F 0.153 -0.077 o 691 0.58 Yes No
2015MQ101 O C H 2018-06-20.19718 1.000E-05 16:56:25.910 1.500E-01 0.500 F 0.071 0.231 -23° 11' 12.40" 1.000E-01 0.500 F 0.463 0.251 19.0 R 0.70 -0.02 o 691 0.69 Yes Yes
2018LO5 O C K 2018-06-20.19843 1.000E-05 15:40:38.440 1.500E-01 0.500 F 0.119 -0.581 -12° 27' 55.40" 1.000E-01 0.500 F 0.153 -0.385 o 691 1.40 Yes No
2015MQ101 O C H 2018-06-20.20694 1.000E-05 16:56:24.440 1.500E-01 0.500 F 0.071 0.233 -23° 10' 46.50" 1.000E-01 0.500 F 0.463 -0.294 19.1 R 0.70 0.08 o 691 0.76 Yes Yes
2018LO5 O C K 2018-06-20.20819 1.000E-05 15:40:34.340 1.500E-01 0.500 F 0.119 0.034 -12° 29' 06.10" 1.000E-01 0.500 F 0.153 -0.023 o 691 0.08 Yes No
2015MQ101 O C H 2018-06-20.21670 1.000E-05 16:56:22.980 1.500E-01 0.500 F 0.071 0.399 -23° 10' 19.60" 1.000E-01 0.500 F 0.463 0.130 o 691 0.85 Yes No
2018LN5 O C K 2018-06-20.21795 1.000E-05 16:57:56.400 1.500E-01 0.500 F 0.055 0.077 -22° 30' 23.50" 1.000E-01 0.500 F 0.306 -0.445 o 691 0.93 Yes No
2017QP17 O C K 2018-06-20.22153 1.000E-05 16:36:49.140 1.500E-01 0.500 F -0.154 -0.141 -12° 31' 20.60" 1.000E-01 0.500 F 0.217 0.171 o 691 0.45 Yes No
2018JQ1 O C K 2018-06-20.22690 1.000E-05 16:29:59.670 1.500E-01 0.500 F 0.089 -0.692 +05° 13' 33.00" 1.000E-01 0.500 F 0.219 0.342 o 691 1.57 Yes No
2018LN5 O C K 2018-06-20.23151 1.000E-05 16:58:02.650 1.500E-01 0.500 F 0.055 -0.164 -22° 31' 35.80" 1.000E-01 0.500 F 0.306 0.066 o 691 0.36 Yes No
2017QP17 O C K 2018-06-20.23509 1.000E-05 16:36:47.230 1.500E-01 0.500 F -0.154 0.388 -12° 31' 03.00" 1.000E-01 0.500 F 0.217 -0.034 o 691 0.78 Yes No
2018JQ1 O C K 2018-06-20.24038 1.000E-05 16:30:00.720 1.500E-01 0.500 F 0.089 -0.114 +05° 13' 33.90" 1.000E-01 0.500 F 0.219 -0.107 o 691 0.32 Yes No
2018LN5 O C K 2018-06-20.24499 1.000E-05 16:58:08.880 1.500E-01 0.500 F 0.055 -0.056 -22° 32' 48.60" 1.000E-01 0.500 F 0.306 -0.579 o 691 1.20 Yes No
2017QP17 O C K 2018-06-20.24857 1.000E-05 16:36:45.260 1.500E-01 0.500 F -0.154 -0.129 -12° 30' 45.40" 1.000E-01 0.500 F 0.217 -0.146 o 691 0.39 Yes No
2018JQ1 O C K 2018-06-20.25386 1.000E-05 16:30:01.720 1.500E-01 0.500 F 0.089 -0.269 +05° 13' 35.50" 1.000E-01 0.500 F 0.219 0.167 o 691 0.64 Yes No
2018LX5 O C H 2018-06-20.26123 1.000E-05 15:43:08.450 1.500E-01 0.500 F 0.156 -0.321 -12° 19' 51.50" 1.000E-01 0.500 F 0.203 -0.154 o 691 0.75 Yes No
2018LX5 O C H 2018-06-20.26803 1.000E-05 15:42:40.240 1.500E-01 0.500 F 0.156 -1.408 -12° 23' 39.40" 1.000E-01 0.500 F 0.203 -0.995 o 691 3.29 No No
2018LX5 O C H 2018-06-20.27479 1.000E-05 15:42:12.210 1.500E-01 0.500 F 0.156 -1.004 -12° 27' 24.60" 1.000E-01 0.500 F 0.203 -0.086 o 691 2.14 Yes No
2018LQ2 O C 2018-06-20.30761 1.000E-05 16:58:05.320 1.500E-01 0.500 F 0.030 -0.302 +26° 58' 38.00" 1.000E-01 0.500 F 0.220 -0.233 20.2 V 0.70 -0.12 o 691 0.76 Yes Yes
2018LC1 O C K 2018-06-20.30970 1.000E-05 16:41:20.650 1.500E-01 0.500 F 0.303 0.355 +06° 54' 16.60" 1.000E-01 0.500 F 0.159 0.095 o 691 0.75 Yes No
2018LQ2 O C 2018-06-20.31770 1.000E-05 16:58:04.820 1.500E-01 0.500 F 0.030 -0.384 +26° 58' 58.50" 1.000E-01 0.500 F 0.220 0.185 20.2 V 0.70 -0.12 o 691 0.85 Yes Yes
2018LC1 O C K 2018-06-20.31970 1.000E-05 16:41:22.840 1.500E-01 0.500 F 0.303 -0.210 +06° 53' 39.00" 1.000E-01 0.500 F 0.159 -0.032 o 691 0.43 Yes No
2018LQ2 O C 2018-06-20.32759 1.000E-05 16:58:04.380 1.500E-01 0.500 F 0.030 0.032 +26° 59' 17.90" 1.000E-01 0.500 F 0.220 0.171 20.1 V 0.70 -0.22 o 691 0.35 Yes Yes
2018LC1 O C K 2018-06-20.32955 1.000E-05 16:41:25.070 1.500E-01 0.500 F 0.303 0.195 +06° 53' 01.90" 1.000E-01 0.500 F 0.159 -0.207 o 691 0.58 Yes No
2007LT O C K 2018-06-20.38508 1.000E-05 21:04:57.190 1.500E-01 0.500 F 0.084 -0.167 -12° 41' 45.10" 1.000E-01 0.500 F 0.295 0.101 o 691 0.39 Yes No
2007LT O C K 2018-06-20.39522 1.000E-05 21:04:55.220 1.500E-01 0.500 F 0.084 -0.312 -12° 41' 53.80" 1.000E-01 0.500 F 0.295 -0.294 o 691 0.86 Yes No
2007LT O C K 2018-06-20.40566 1.000E-05 21:04:53.200 1.500E-01 0.500 F 0.084 -0.283 -12° 42' 01.40" 1.000E-01 0.500 F 0.295 0.613 o 691 1.36 Yes No
2018GL1 O C K 2018-06-20.41908 1.000E-05 22:29:51.150 1.500E-01 0.500 F -0.167 0.259 -18° 56' 01.60" 1.000E-01 0.500 F 0.171 -0.191 o 691 0.65 Yes No
2018GL1 O C K 2018-06-20.42900 1.000E-05 22:29:51.440 1.500E-01 0.500 F -0.167 -0.130 -18° 56' 20.30" 1.000E-01 0.500 F 0.171 -0.377 o 691 0.80 Yes No
2018GL1 O C K 2018-06-20.43892 1.000E-05 22:29:51.710 1.500E-01 0.500 F -0.167 -0.669 -18° 56' 39.10" 1.000E-01 0.500 F 0.171 -0.752 o 691 2.03 Yes No
2018LC3 O C H 2018-06-20.44953 1.000E-05 00:05:46.370 1.500E-01 0.500 F -0.130 0.285 +09° 12' 03.90" 1.000E-01 0.500 F 0.288 0.033 19.3 R 0.70 0.41 o 691 0.58 Yes Yes
2018JD5 O C K 2018-06-20.45073 1.000E-05 00:44:26.470 1.500E-01 0.500 F -0.125 -0.170 +08° 31' 49.30" 1.000E-01 0.500 F 0.274 -0.242 o 691 0.60 Yes No
2018LC3 O C H 2018-06-20.45319 1.000E-05 00:05:46.220 1.500E-01 0.500 F -0.130 -0.074 +09° 11' 39.30" 1.000E-01 0.500 F 0.288 -0.261 18.9 R 0.70 0.01 o 691 0.55 Yes Yes
2018JD5 O C K 2018-06-20.45437 1.000E-05 00:44:27.260 1.500E-01 0.500 F -0.125 -0.263 +08° 31' 55.60" 1.000E-01 0.500 F 0.274 -0.238 o 691 0.72 Yes No
2018JD5 O C K 2018-06-20.45803 1.000E-05 00:44:28.070 1.500E-01 0.500 F -0.125 -0.119 +08° 32' 02.00" 1.000E-01 0.500 F 0.274 -0.167 o 691 0.41 Yes No
2018LO5 O C K 2018-06-21.16030 1.000E-05 15:34:01.860 1.500E-01 0.500 F 0.101 0.218 -14° 23' 50.70" 1.000E-01 0.500 F 0.100 -0.134 o 691 0.51 Yes No
2018LU3 O C 2018-06-21.16677 1.000E-05 15:29:57.990 1.500E-01 0.500 F 0.099 -0.140 -23° 11' 35.50" 1.000E-01 0.500 F 0.214 0.422 19.5 V 0.70 0.50 o 691 0.90 Yes Yes
2018LS2 O C K 2018-06-21.16801 1.000E-05 15:11:18.830 1.500E-01 0.500 F 0.224 -0.095 -24° 18' 58.00" 1.000E-01 0.500 F 0.178 0.336 o 691 0.71 Yes No
2018LO5 O C K 2018-06-21.17601 1.000E-05 15:33:55.240 1.500E-01 0.500 F 0.101 0.517 -14° 25' 43.40" 1.000E-01 0.500 F 0.100 0.093 o 691 1.06 Yes No
2018LU3 O C 2018-06-21.18245 1.000E-05 15:30:06.550 1.500E-01 0.500 F 0.099 -0.345 -23° 12' 03.00" 1.000E-01 0.500 F 0.214 -0.047 19.2 V 0.70 0.20 o 691 0.71 Yes Yes
2018LS2 O C K 2018-06-21.18369 1.000E-05 15:11:15.120 1.500E-01 0.500 F 0.224 -0.150 -24° 19' 30.60" 1.000E-01 0.500 F 0.178 0.109 o 691 0.38 Yes No
2018LO5 O C K 2018-06-21.19170 1.000E-05 15:33:48.540 1.500E-01 0.500 F 0.101 -0.419 -14° 27' 37.00" 1.000E-01 0.500 F 0.100 -0.816 o 691 1.85 Yes No
2018LU3 O C 2018-06-21.19814 1.000E-05 15:30:15.170 1.500E-01 0.500 F 0.099 0.316 -23° 12' 29.80" 1.000E-01 0.500 F 0.214 -0.239 19.3 V 0.70 0.31 o 691 0.81 Yes Yes
2018JV2 O C K 2018-06-21.21265 1.000E-05 16:47:52.710 1.500E-01 0.500 F -0.034 0.113 -20° 20' 16.50" 1.000E-01 0.500 F 0.025 0.156 o 691 0.39 Yes No
2018JV2 O C K 2018-06-21.22803 1.000E-05 16:47:53.480 1.500E-01 0.500 F -0.034 0.514 -20° 20' 46.80" 1.000E-01 0.500 F 0.025 0.304 o 691 1.21 Yes No
2018JV2 O C K 2018-06-21.24359 1.000E-05 16:47:54.180 1.500E-01 0.500 F -0.034 -0.105 -20° 21' 17.50" 1.000E-01 0.500 F 0.025 0.251 o 691 0.57 Yes No
2017QP17 O C K 2018-06-21.25457 1.000E-05 16:34:27.310 1.500E-01 0.500 F -0.069 -0.209 -12° 08' 54.70" 1.000E-01 0.500 F 0.132 0.164 o 691 0.53 Yes No
2018MW6 O C K 2018-06-21.25863 1.000E-05 16:40:16.210 1.500E-01 0.500 F -0.177 -0.089 -10° 51' 16.50" 1.000E-01 0.500 F 0.118 0.137 o 691 0.33 Yes No
2018JQ1 O C K 2018-06-21.26297 1.000E-05 16:31:26.110 1.500E-01 0.500 F 0.089 -0.066 +05° 14' 49.60" 1.000E-01 0.500 F 0.219 -0.006 o 691 0.14 Yes No
2018MW6 O C K 2018-06-21.27247 1.000E-05 16:40:14.180 1.500E-01 0.500 F -0.177 -0.185 -10° 50' 56.70" 1.000E-01 0.500 F 0.118 -0.026 o 691 0.37 Yes No
2018JQ1 O C K 2018-06-21.27673 1.000E-05 16:31:27.130 1.500E-01 0.500 F 0.089 -0.112 +05° 14' 50.10" 1.000E-01 0.500 F 0.219 -0.175 o 691 0.42 Yes No
2017QP17 O C K 2018-06-21.28214 1.000E-05 16:34:23.460 1.500E-01 0.500 F -0.069 -0.103 -12° 08' 19.20" 1.000E-01 0.500 F 0.132 0.068 o 691 0.25 Yes No
2018MW6 O C K 2018-06-21.28620 1.000E-05 16:40:12.210 1.500E-01 0.500 F -0.177 0.363 -10° 50' 36.50" 1.000E-01 0.500 F 0.118 0.345 o 691 1.00 Yes No
2018JQ1 O C K 2018-06-21.29046 1.000E-05 16:31:28.080 1.500E-01 0.500 F 0.089 -1.195 +05° 14' 49.40" 1.000E-01 0.500 F 0.219 -1.520 o 691 3.80 No No
2005NW44 O C H 2018-06-21.30405 1.000E-05 15:39:39.450 1.500E-01 0.500 F 0.153 -0.134 +31° 50' 25.90" 1.000E-01 0.500 F 0.239 -0.076 16.5 R 0.70 0.20 o 691 0.31 Yes Yes
2018LQ2 O C H 2018-06-21.30538 1.000E-05 16:58:28.520 1.500E-01 0.500 F 0.005 0.064 +27° 33' 13.80" 1.000E-01 0.500 F 0.222 0.172 20.1 R 0.70 0.18 o 691 0.37 Yes Yes
2005NW44 O C H 2018-06-21.30881 1.000E-05 15:39:37.940 1.500E-01 0.500 F 0.153 -0.202 +31° 48' 56.70" 1.000E-01 0.500 F 0.239 -0.101 16.5 R 0.70 0.20 o 691 0.45 Yes Yes
2018LQ2 O C H 2018-06-21.31010 1.000E-05 16:58:28.310 1.500E-01 0.500 F 0.005 0.241 +27° 33' 23.10" 1.000E-01 0.500 F 0.222 0.260 20.2 R 0.70 0.28 o 691 0.71 Yes Yes
2005NW44 O C H 2018-06-21.31355 1.000E-05 15:39:36.450 1.500E-01 0.500 F 0.153 -0.175 +31° 47' 28.10" 1.000E-01 0.500 F 0.239 0.096 16.5 R 0.70 0.20 o 691 0.40 Yes Yes
2007NL1 O C K 2018-06-21.31775 1.000E-05 18:34:25.650 1.500E-01 0.500 F -0.012 -0.211 +11° 36' 01.10" 1.000E-01 0.500 F 0.157 -0.025 o 691 0.46 Yes No
2018LP5 O C K 2018-06-21.32621 1.000E-05 20:17:44.350 1.500E-01 0.500 F -0.114 0.105 -09° 26' 42.40" 1.000E-01 0.500 F 0.217 -0.035 19.2 R 0.70 -0.89 o 691 0.22 Yes Yes
2007NL1 O C K 2018-06-21.33027 1.000E-05 18:34:24.190 1.500E-01 0.500 F -0.012 -0.138 +11° 35' 48.20" 1.000E-01 0.500 F 0.157 0.085 o 691 0.35 Yes No
2018LP5 O C K 2018-06-21.33860 1.000E-05 20:17:44.330 1.500E-01 0.500 F -0.114 -0.054 -09° 25' 47.80" 1.000E-01 0.500 F 0.217 -0.009 18.8 R 0.70 -1.29 o 691 0.11 Yes Yes
2007NL1 O C K 2018-06-21.34285 1.000E-05 18:34:22.710 1.500E-01 0.500 F -0.012 -0.238 +11° 35' 35.00" 1.000E-01 0.500 F 0.157 0.002 o 691 0.52 Yes No
2018MU6 O C K 2018-06-21.35760 1.000E-05 20:52:46.790 1.500E-01 0.500 F -0.192 0.305 -16° 50' 31.40" 1.000E-01 0.500 F 0.107 -0.098 o 691 0.65 Yes No
2018LB16 O C K 2018-06-21.36457 1.000E-05 21:48:31.870 1.500E-01 0.500 F -0.131 0.051 -15° 57' 49.30" 1.000E-01 0.500 F 0.283 0.311 o 691 0.65 Yes No
McAuliffe O C 2018-06-21.36457 1.000E-05 21:48:19.500 1.500E-01 0.500 F -0.131 -0.232 -15° 26' 33.80" 1.000E-01 0.500 F 0.283 -0.241 20.1 V 0.70 -0.07 o 691 0.67 Yes Yes
2018MU6 O C K 2018-06-21.37217 1.000E-05 20:52:44.590 1.500E-01 0.500 F -0.192 -0.006 -16° 51' 04.90" 1.000E-01 0.500 F 0.107 0.081 o 691 0.16 Yes No
McAuliffe O C 2018-06-21.37903 1.000E-05 21:48:19.350 1.500E-01 0.500 F -0.131 -0.082 -15° 26' 36.70" 1.000E-01 0.500 F 0.283 -0.526 20.4 V 0.70 0.23 o 691 1.06 Yes Yes
2018LB16 O C K 2018-06-21.37903 1.000E-05 21:48:32.180 1.500E-01 0.500 F -0.131 -0.115 -15° 57' 02.10" 1.000E-01 0.500 F 0.283 0.272 o 691 0.61 Yes No
2018MU6 O C K 2018-06-21.38663 1.000E-05 20:52:42.410 1.500E-01 0.500 F -0.192 -0.165 -16° 51' 38.30" 1.000E-01 0.500 F 0.107 0.009 o 691 0.34 Yes No
2018LB16 O C K 2018-06-21.39356 1.000E-05 21:48:32.490 1.500E-01 0.500 F -0.131 -0.133 -15° 56' 14.30" 1.000E-01 0.500 F 0.283 0.543 o 691 1.15 Yes No
McAuliffe O C 2018-06-21.39356 1.000E-05 21:48:19.180 1.500E-01 0.500 F -0.131 -0.186 -15° 26' 38.80" 1.000E-01 0.500 F 0.283 -0.004 20.4 V 0.70 0.23 o 691 0.37 Yes Yes
2018MR5 O C K 2018-06-21.40137 1.000E-05 21:09:09.600 1.500E-01 0.500 F -0.105 0.102 -23° 55' 57.80" 1.000E-01 0.500 F 0.410 -0.029 o 691 0.21 Yes No
2018MS6 O C K 2018-06-21.40536 1.000E-05 21:25:04.810 1.500E-01 0.500 F -0.047 -0.136 -07° 17' 47.20" 1.000E-01 0.500 F 0.306 0.198 o 691 0.48 Yes No
2018MR5 O C K 2018-06-21.41259 1.000E-05 21:09:06.160 1.500E-01 0.500 F -0.105 -0.256 -23° 56' 07.00" 1.000E-01 0.500 F 0.410 0.343 o 691 0.86 Yes No
2018MS6 O C K 2018-06-21.41650 1.000E-05 21:25:05.750 1.500E-01 0.500 F -0.047 -0.387 -07° 17' 25.00" 1.000E-01 0.500 F 0.306 -0.141 o 691 0.83 Yes No
2018MR5 O C K 2018-06-21.42369 1.000E-05 21:09:02.780 1.500E-01 0.500 F -0.105 -0.279 -23° 56' 17.40" 1.000E-01 0.500 F 0.410 -0.633 o 691 1.39 Yes No
2018MS6 O C K 2018-06-21.42761 1.000E-05 21:25:06.730 1.500E-01 0.500 F -0.047 0.023 -07° 17' 02.20" 1.000E-01 0.500 F 0.306 0.170 o 691 0.34 Yes No
2018JD5 O C K 2018-06-21.44564 1.000E-05 00:48:06.090 1.500E-01 0.500 F -0.083 0.077 +09° 00' 06.90" 1.000E-01 0.500 F 0.349 0.132 o 691 0.31 Yes No

[1-200] [201-400] [401-600] [601-800] [801-1000] [1001-1200] [1201-1400] [1401-1600] [1601-1800] [1801-2000] [2001-2200] [2201-2400] [2401-2600] [2601-2800] [2801-3000] [3001-3200] [3201-3400] [3401-3600] [3601-3800] [3801-4000] [4001-4200] [4201-4400] [4401-4600] [4601-4800] [4801-5000] [5001-5200] [5201-5400] [5401-5600] [5601-5800] [5801-6000] [6001-6200] [6201-6400] [6401-6600] [6601-6800] [6801-7000] [7001-7200] [7201-7400] [7401-7600] [7601-7800] [7801-8000] [8001-8200] [8201-8400] [8401-8600] [8601-8800] [8801-9000] [9001-9200] [9201-9400] [9401-9600] [9601-9800] [9801-10000] [10001-10200] [10201-10400] [10401-10600] [10601-10800] [10801-11000] [11001-11200] [11201-11400] [11401-11600] [11601-11800] [11801-12000] [12001-12200] [12201-12400] [12401-12600] [12601-12800] [12801-13000] [13001-13200] [13201-13400] [13401-13600] [13601-13800] [13801-14000] [14001-14200] [14201-14400] [14401-14600] [14601-14800] [14801-15000] [15001-15200] [15201-15400] [15401-15600] [15601-15800] [15801-16000] [16001-16200] [16201-16400] [16401-16600] [16601-16800] [16801-17000] [17001-17200] [17201-17400] [17401-17600] [17601-17800] [17801-18000] [18001-18200] [18201-18400] [18401-18600] [18601-18800] [18801-19000] [19001-19200] [19201-19400] [19401-19600] [19601-19800] [19801-20000] [20001-20200] [20201-20400] [20401-20600] [20601-20800] [20801-21000] [21001-21200] [21201-21400] [21401-21600] [21601-21800] [21801-22000] [22001-22200] [22201-22400] [22401-22600] [22601-22800] [22801-23000] [23001-23200] [23201-23400] [23401-23600] [23601-23800] [23801-24000] [24001-24200] [24201-24400] [24401-24600] [24601-24800] [24801-25000] [25001-25200] [25201-25400] [25401-25600] [25601-25800] [25801-26000] [26001-26200] [26201-26400] [26401-26600] [26601-26800] [26801-27000] [27001-27200] [27201-27400] [27401-27600] [27601-27800] [27801-28000] [28001-28200] [28201-28400] [28401-28600] [28601-28800] [28801-29000] [29001-29200] [29201-29400] [29401-29600] [29601-29800] [29801-30000] [30001-30200] [30201-30400] [30401-30600] [30601-30800] [30801-31000] [31001-31200] [31201-31400] [31401-31600] [31601-31800] [31801-32000] [32001-32200] [32201-32400] [32401-32600] [32601-32800] [32801-33000] [33001-33200] [33201-33400] [33401-33600] [33601-33800] [33801-34000] [34001-34200] [34201-34400] [34401-34600] [34601-34800] [34801-35000] [35001-35200] [35201-35400] [35401-35600] [35601-35800] [35801-36000] [36001-36200] [36201-36400] [36401-36600] [36601-36800] [36801-37000] [37001-37200] [37201-37400] [37401-37600] [37601-37800] [37801-38000] [38001-38200] [38201-38400] [38401-38600] [38601-38800] [38801-39000] [39001-39200] [39201-39400] [39401-39600] [39601-39800] [39801-40000] [40001-40200] [40201-40400] [40401-40600] [40601-40800] [40801-41000] [41001-41200] [41201-41400] [41401-41600] [41601-41800] [41801-42000] [42001-42200] [42201-42400] [42401-42600] [42601-42800] [42801-43000] [43001-43200] [43201-43400] [43401-43600] [43601-43800] [43801-44000] [44001-44200] [44201-44400] [44401-44600] [44601-44800] [44801-45000] [45001-45200] [45201-45400] [45401-45600] [45601-45800] [45801-46000] [46001-46200] [46201-46400] [46401-46600] [46601-46800] [46801-47000] [47001-47200] [47201-47400] [47401-47600] [47601-47800] [47801-48000] [48001-48200] [48201-48400] [48401-48600] [48601-48800] [48801-49000] [49001-49200] [49201-49400] [49401-49600] [49601-49800] [49801-50000] [50001-50200] [50201-50388]